createdAt,value
2019-05-30T00:00:05.758Z,4.67
2019-05-30T00:02:21.486Z,5.23
2019-05-30T00:04:51.263Z,4.40
2019-05-30T00:07:20.802Z,4.40
2019-05-30T00:09:50.418Z,4.73
2019-05-30T00:12:19.962Z,4.10
2019-05-30T00:14:49.721Z,3.60
2019-05-30T00:17:19.265Z,3.80
2019-05-30T00:19:48.790Z,4.53
2019-05-30T00:22:18.378Z,3.90
2019-05-30T00:24:48.441Z,4.53
2019-05-30T00:27:17.971Z,4.13
2019-05-30T00:29:47.515Z,4.40
2019-05-30T00:32:17.523Z,4.10
2019-05-30T00:34:47.042Z,3.83
2019-05-30T00:37:16.575Z,4.23
2019-05-30T00:39:46.100Z,4.10
2019-05-30T00:42:15.692Z,4.37
2019-05-30T00:44:46.474Z,4.20
2019-05-30T00:47:16.000Z,4.97
2019-05-30T00:49:45.767Z,4.60
2019-05-30T00:52:15.420Z,6.60
2019-05-30T00:54:44.910Z,5.63
2019-05-30T00:57:14.435Z,3.93
2019-05-30T00:59:43.938Z,4.80
2019-05-30T01:02:13.723Z,5.03
2019-05-30T01:04:43.333Z,6.17
2019-05-30T01:07:12.935Z,4.87
2019-05-30T01:09:43.403Z,4.60
2019-05-30T01:12:12.919Z,5.13
2019-05-30T01:14:42.486Z,5.20
2019-05-30T01:17:12.082Z,5.00
2019-05-30T01:19:41.578Z,4.20
2019-05-30T01:22:11.151Z,4.50
2019-05-30T01:24:40.706Z,6.20
2019-05-30T01:27:10.246Z,5.20
2019-05-30T01:29:40.051Z,4.47
2019-05-30T01:32:28.907Z,4.57
2019-05-30T01:34:59.725Z,4.90
2019-05-30T01:37:29.434Z,4.00
2019-05-30T01:39:59.761Z,5.97
2019-05-30T01:42:30.395Z,4.23
2019-05-30T01:45:00.248Z,6.90
2019-05-30T01:47:29.911Z,7.73
2019-05-30T01:50:00.299Z,6.40
2019-05-30T01:52:30.339Z,5.07
2019-05-30T01:55:00.469Z,4.87
2019-05-30T01:57:30.347Z,4.50
2019-05-30T02:00:00.801Z,5.30
2019-05-30T02:02:30.359Z,4.20
2019-05-30T02:05:01.080Z,4.43
2019-05-30T02:07:31.170Z,4.00
2019-05-30T02:10:01.159Z,4.03
2019-05-30T02:12:30.790Z,4.07
2019-05-30T02:15:01.434Z,4.53
2019-05-30T02:17:32.158Z,4.17
2019-05-30T02:20:01.876Z,4.40
2019-05-30T02:22:31.558Z,5.03
2019-05-30T02:25:02.357Z,4.77
2019-05-30T02:27:32.103Z,4.10
2019-05-30T02:30:04.002Z,4.47
2019-05-30T02:32:32.934Z,4.33
2019-05-30T02:35:07.568Z,4.60
2019-05-30T02:37:36.886Z,4.47
2019-05-30T02:40:09.861Z,5.20
2019-05-30T02:42:37.682Z,5.20
2019-05-30T02:45:12.225Z,4.83
2019-05-30T02:47:41.227Z,5.20
2019-05-30T02:50:14.099Z,4.53
2019-05-30T02:52:43.842Z,4.83
2019-05-30T02:55:13.931Z,4.40
2019-05-30T02:57:43.667Z,4.53
2019-05-30T03:00:16.915Z,3.53
2019-05-30T03:03:15.405Z,5.57
2019-05-30T03:05:48.890Z,4.40
2019-05-30T03:08:18.395Z,4.80
2019-05-30T03:10:47.902Z,4.50
2019-05-30T03:13:17.388Z,5.60
2019-05-30T03:15:46.883Z,4.20
2019-05-30T03:18:16.414Z,4.10
2019-05-30T03:20:46.037Z,4.80
2019-05-30T03:23:16.514Z,4.83
2019-05-30T03:25:46.039Z,4.90
2019-05-30T03:28:15.567Z,4.50
2019-05-30T03:30:45.168Z,4.30
2019-05-30T03:33:34.902Z,4.43
2019-05-30T03:35:46.144Z,4.47
2019-05-30T03:38:15.838Z,4.40
2019-05-30T03:40:45.544Z,5.00
2019-05-30T03:43:15.933Z,4.67
2019-05-30T03:45:45.804Z,4.17
2019-05-30T03:48:16.528Z,4.60
2019-05-30T03:50:49.483Z,4.47
2019-05-30T03:53:19.330Z,4.73
2019-05-30T03:55:53.959Z,4.77
2019-05-30T03:58:33.757Z,5.43
2019-05-30T04:01:06.184Z,4.20
2019-05-30T04:03:41.351Z,5.40
2019-05-30T04:06:19.517Z,4.50
2019-05-30T04:08:50.068Z,5.60
2019-05-30T04:11:21.099Z,4.67
2019-05-30T04:13:52.472Z,4.27
2019-05-30T04:16:21.959Z,3.77
2019-05-30T04:18:51.524Z,4.83
2019-05-30T04:21:21.781Z,4.83
2019-05-30T04:23:51.420Z,5.20
2019-05-30T04:26:42.336Z,4.47
2019-05-30T04:29:12.381Z,5.03
2019-05-30T04:31:43.041Z,4.70
2019-05-30T04:34:13.160Z,4.57
2019-05-30T04:36:44.023Z,4.90
2019-05-30T04:39:15.152Z,4.77
2019-05-30T04:41:44.825Z,5.00
2019-05-30T04:44:16.065Z,5.10
2019-05-30T04:46:45.584Z,4.70
2019-05-30T04:49:16.905Z,4.57
2019-05-30T04:51:46.386Z,4.00
2019-05-30T04:54:16.934Z,3.90
2019-05-30T04:56:47.319Z,3.60
2019-05-30T04:59:17.524Z,3.47
2019-05-30T05:01:48.338Z,3.20
2019-05-30T05:04:19.421Z,3.40
2019-05-30T05:06:49.066Z,3.10
2019-05-30T05:09:20.144Z,4.00
2019-05-30T05:11:49.914Z,3.43
2019-05-30T05:14:20.556Z,3.20
2019-05-30T05:16:50.275Z,3.40
2019-05-30T05:19:22.409Z,3.80
2019-05-30T05:21:51.294Z,3.20
2019-05-30T05:24:21.459Z,2.70
2019-05-30T05:26:51.055Z,2.70
2019-05-30T05:29:21.790Z,2.50
2019-05-30T05:32:16.111Z,2.80
2019-05-30T05:34:45.923Z,2.30
2019-05-30T05:37:15.454Z,2.53
2019-05-30T05:39:44.991Z,2.00
2019-05-30T05:42:16.020Z,2.10
2019-05-30T05:44:53.281Z,1.83
2019-05-30T05:47:23.030Z,2.30
2019-05-30T05:49:52.578Z,2.90
2019-05-30T05:52:22.812Z,2.00
2019-05-30T05:54:52.374Z,2.10
2019-05-30T05:57:22.949Z,1.90
2019-05-30T05:59:52.618Z,1.90
2019-05-30T06:02:23.257Z,1.90
2019-05-30T06:04:52.923Z,1.90
2019-05-30T06:07:25.935Z,1.80
2019-05-30T06:09:55.435Z,1.80
2019-05-30T06:12:25.775Z,2.10
2019-05-30T06:14:55.670Z,1.67
2019-05-30T06:17:25.462Z,1.60
2019-05-30T06:19:54.975Z,2.63
2019-05-30T06:22:25.549Z,1.90
2019-05-30T06:24:55.218Z,2.50
2019-05-30T06:27:26.146Z,1.67
2019-05-30T06:29:55.946Z,1.87
2019-05-30T06:32:26.659Z,2.80
2019-05-30T06:34:56.595Z,1.90
2019-05-30T06:37:27.323Z,1.80
2019-05-30T06:39:57.014Z,1.80
2019-05-30T06:42:28.151Z,1.70
2019-05-30T06:44:57.794Z,2.10
2019-05-30T06:47:28.375Z,1.60
2019-05-30T06:49:58.466Z,1.73
2019-05-30T06:52:29.188Z,2.67
2019-05-30T06:54:59.074Z,1.50
2019-05-30T06:57:29.341Z,2.60
2019-05-30T07:00:06.040Z,1.70
2019-05-30T07:02:35.654Z,1.30
2019-05-30T07:05:05.853Z,2.27
2019-05-30T07:07:35.814Z,1.60
2019-05-30T07:10:06.140Z,1.60
2019-05-30T07:12:35.647Z,2.30
2019-05-30T07:15:06.298Z,1.40
2019-05-30T07:17:35.895Z,2.07
2019-05-30T07:20:06.446Z,1.97
2019-05-30T07:22:35.967Z,1.13
2019-05-30T07:25:05.778Z,1.40
2019-05-30T07:27:35.308Z,1.40
2019-05-30T07:30:05.306Z,1.47
2019-05-30T07:32:34.802Z,2.50
2019-05-30T07:35:07.174Z,1.20
2019-05-30T07:37:35.818Z,1.40
2019-05-30T07:40:07.525Z,1.72
2019-05-30T07:42:38.111Z,1.20
2019-05-30T07:45:08.638Z,1.67
2019-05-30T07:47:38.617Z,1.75
2019-05-30T07:50:09.460Z,1.52
2019-05-30T07:52:39.139Z,1.20
2019-05-30T07:55:08.841Z,1.60
2019-05-30T07:57:40.989Z,1.52
2019-05-30T08:00:10.539Z,1.65
2019-05-30T08:02:41.025Z,1.42
2019-05-30T08:05:23.553Z,2.20
2019-05-30T08:07:42.125Z,1.95
2019-05-30T08:10:12.625Z,1.70
2019-05-30T08:12:45.212Z,1.50
2019-05-30T08:15:14.811Z,1.60
2019-05-30T08:17:44.734Z,1.40
2019-05-30T08:20:14.651Z,1.50
2019-05-30T08:22:44.470Z,1.70
2019-05-30T08:25:14.303Z,1.50
2019-05-30T08:27:43.833Z,1.20
2019-05-30T08:30:14.004Z,1.60
2019-05-30T08:32:43.568Z,1.20
2019-05-30T08:35:13.186Z,1.40
2019-05-30T08:37:42.767Z,1.32
2019-05-30T08:40:12.375Z,1.40
2019-05-30T08:42:41.890Z,1.37
2019-05-30T08:45:11.813Z,1.30
2019-05-30T08:47:41.369Z,1.30
2019-05-30T08:50:10.923Z,1.17
2019-05-30T08:52:41.070Z,1.40
2019-05-30T08:55:10.790Z,1.20
2019-05-30T08:57:40.968Z,1.20
2019-05-30T09:00:10.961Z,1.32
2019-05-30T09:02:41.003Z,1.37
2019-05-30T09:05:10.882Z,1.30
2019-05-30T09:07:40.482Z,1.82
2019-05-30T09:10:10.110Z,1.40
2019-05-30T09:12:42.089Z,1.40
2019-05-30T09:15:11.074Z,1.30
2019-05-30T09:17:42.484Z,1.25
2019-05-30T09:20:14.106Z,1.02
2019-05-30T09:22:43.854Z,1.02
2019-05-30T09:25:13.588Z,1.70
2019-05-30T09:27:44.680Z,1.32
2019-05-30T09:30:14.715Z,3.12
2019-05-30T09:32:45.175Z,1.30
2019-05-30T09:35:15.282Z,1.10
2019-05-30T09:37:45.843Z,1.15
2019-05-30T09:40:15.871Z,1.07
2019-05-30T09:42:47.015Z,1.45
2019-05-30T09:45:17.257Z,1.30
2019-05-30T09:47:47.953Z,1.00
2019-05-30T09:50:18.537Z,2.25
2019-05-30T09:52:49.145Z,1.12
2019-05-30T09:55:19.426Z,1.45
2019-05-30T09:57:49.610Z,1.30
2019-05-30T10:00:20.451Z,1.57
2019-05-30T10:02:50.579Z,1.30
2019-05-30T10:05:24.203Z,1.55
2019-05-30T10:07:52.997Z,1.50
2019-05-30T10:10:23.213Z,1.70
2019-05-30T10:12:53.675Z,2.12
2019-05-30T10:15:40.000Z,1.27
2019-05-30T10:18:09.645Z,1.35
2019-05-30T10:20:39.397Z,1.40
2019-05-30T10:23:09.000Z,1.80
2019-05-30T10:25:38.510Z,1.67
2019-05-30T10:28:08.305Z,1.70
2019-05-30T10:30:37.838Z,1.65
2019-05-30T10:33:07.336Z,1.50
2019-05-30T10:35:36.847Z,1.30
2019-05-30T10:38:06.346Z,1.40
2019-05-30T10:40:36.238Z,1.20
2019-05-30T10:43:08.426Z,1.60
2019-05-30T10:45:38.684Z,2.30
2019-05-30T10:48:08.581Z,1.50
2019-05-30T10:50:38.089Z,1.50
2019-05-30T10:53:07.582Z,1.97
2019-05-30T10:55:37.126Z,1.40
2019-05-30T10:58:06.867Z,2.70
2019-05-30T11:00:50.537Z,1.93
2019-05-30T11:03:21.421Z,1.30
2019-05-30T11:05:59.421Z,1.60
2019-05-30T11:08:29.449Z,1.30
2019-05-30T11:10:58.971Z,1.50
2019-05-30T11:13:28.505Z,1.50
2019-05-30T11:15:58.939Z,1.43
2019-05-30T11:18:28.551Z,1.40
2019-05-30T11:20:59.107Z,1.37
2019-05-30T11:23:29.013Z,1.87
2019-05-30T11:25:58.902Z,1.70
2019-05-30T11:28:30.940Z,1.40
2019-05-30T11:31:04.198Z,1.10
2019-05-30T11:33:33.656Z,1.40
2019-05-30T11:36:13.106Z,2.10
2019-05-30T11:38:43.550Z,7.00
2019-05-30T11:41:14.335Z,1.87
2019-05-30T11:43:53.499Z,1.67
2019-05-30T11:46:25.108Z,1.60
2019-05-30T11:48:57.857Z,1.60
2019-05-30T11:51:32.921Z,1.60
2019-05-30T11:54:05.850Z,1.90
2019-05-30T11:56:40.139Z,1.83
2019-05-30T11:59:19.076Z,1.87
2019-05-30T12:01:50.248Z,2.03
2019-05-30T12:04:32.363Z,1.70
2019-05-30T12:07:35.450Z,1.50
2019-05-30T12:10:06.849Z,3.73
2019-05-30T12:12:36.619Z,2.90
2019-05-30T12:15:06.718Z,2.33
2019-05-30T12:17:38.137Z,1.60
2019-05-30T12:20:08.132Z,1.90
2019-05-30T12:22:38.844Z,1.80
2019-05-30T12:25:08.724Z,1.83
2019-05-30T12:27:46.050Z,1.67
2019-05-30T12:30:27.559Z,1.77
2019-05-30T12:32:58.330Z,2.53
2019-05-30T12:35:28.391Z,1.33
2019-05-30T12:38:06.587Z,2.07
2019-05-30T12:40:39.924Z,1.87
2019-05-30T12:43:13.725Z,1.73
2019-05-30T12:45:44.541Z,1.70
2019-05-30T12:48:38.921Z,1.60
2019-05-30T12:51:06.202Z,1.90
2019-05-30T12:53:35.805Z,1.77
2019-05-30T12:56:07.522Z,1.80
2019-05-30T12:58:38.194Z,2.00
2019-05-30T13:01:08.071Z,1.80
2019-05-30T13:03:38.593Z,2.27
2019-05-30T13:06:08.292Z,2.17
2019-05-30T13:08:37.922Z,1.80
2019-05-30T13:11:07.427Z,1.90
2019-05-30T13:13:36.992Z,2.13
2019-05-30T13:16:10.354Z,2.20
2019-05-30T13:18:40.819Z,2.10
2019-05-30T13:21:10.399Z,1.90
2019-05-30T13:23:40.007Z,1.93
2019-05-30T13:26:09.858Z,1.70
2019-05-30T13:28:41.655Z,2.00
2019-05-30T13:31:11.378Z,1.97
2019-05-30T13:33:41.173Z,3.10
2019-05-30T13:36:11.437Z,2.83
2019-05-30T13:38:41.429Z,1.90
2019-05-30T13:41:11.062Z,2.10
2019-05-30T13:43:41.075Z,2.23
2019-05-30T13:46:11.108Z,2.67
2019-05-30T13:48:40.768Z,1.63
2019-05-30T13:51:10.343Z,2.20
2019-05-30T13:53:39.956Z,2.13
2019-05-30T13:56:10.541Z,1.97
2019-05-30T13:58:40.525Z,3.93
2019-05-30T14:01:14.184Z,2.83
2019-05-30T14:03:43.843Z,2.20
2019-05-30T14:06:13.406Z,2.20
2019-05-30T14:08:42.918Z,1.87
2019-05-30T14:11:14.132Z,2.33
2019-05-30T14:13:43.721Z,1.80
2019-05-30T14:16:13.539Z,2.10
2019-05-30T14:18:43.097Z,2.27
2019-05-30T14:21:12.710Z,2.10
2019-05-30T14:23:47.490Z,1.90
2019-05-30T14:26:17.219Z,2.47
2019-05-30T14:28:47.007Z,2.23
2019-05-30T14:31:16.886Z,2.33
2019-05-30T14:33:46.842Z,2.13
2019-05-30T14:36:16.766Z,2.70
2019-05-30T14:38:57.992Z,2.33
2019-05-30T14:41:18.938Z,3.13
2019-05-30T14:43:48.474Z,2.30
2019-05-30T14:46:18.288Z,2.40
2019-05-30T14:48:48.145Z,2.13
2019-05-30T14:51:17.681Z,2.00
2019-05-30T14:53:47.557Z,2.70
2019-05-30T14:56:17.603Z,2.93
2019-05-30T14:58:47.608Z,2.87
2019-05-30T15:01:17.624Z,2.10
2019-05-30T15:03:47.439Z,2.80
2019-05-30T15:06:17.895Z,2.43
2019-05-30T15:08:47.772Z,2.13
2019-05-30T15:11:17.326Z,2.23
2019-05-30T15:13:47.089Z,2.50
2019-05-30T15:16:17.211Z,2.47
2019-05-30T15:18:47.019Z,2.10
2019-05-30T15:21:16.718Z,2.33
2019-05-30T15:23:46.596Z,1.90
2019-05-30T15:26:16.321Z,2.23
2019-05-30T15:28:46.062Z,3.10
2019-05-30T15:31:16.639Z,1.90
2019-05-30T15:33:46.947Z,2.60
2019-05-30T15:36:17.068Z,2.20
2019-05-30T15:38:47.060Z,1.97
2019-05-30T15:41:17.363Z,1.90
2019-05-30T15:43:47.575Z,2.60
2019-05-30T15:46:19.356Z,2.63
2019-05-30T15:48:48.870Z,2.33
2019-05-30T15:51:18.873Z,2.50
2019-05-30T15:53:48.714Z,2.33
2019-05-30T15:56:19.413Z,2.00
2019-05-30T15:58:49.570Z,2.00
2019-05-30T16:01:20.168Z,2.10
2019-05-30T16:03:49.755Z,1.90
2019-05-30T16:06:20.538Z,2.00
2019-05-30T16:08:50.420Z,2.17
2019-05-30T16:11:21.227Z,2.47
2019-05-30T16:13:51.072Z,2.33
2019-05-30T16:16:33.770Z,3.87
2019-05-30T16:18:51.866Z,3.07
2019-05-30T16:21:22.434Z,3.10
2019-05-30T16:23:52.288Z,2.30
2019-05-30T16:26:22.044Z,2.47
2019-05-30T16:28:51.915Z,2.83
2019-05-30T16:31:22.370Z,2.50
2019-05-30T16:33:53.163Z,3.63
2019-05-30T16:36:22.787Z,2.60
2019-05-30T16:38:52.554Z,3.40
2019-05-30T16:41:22.626Z,1.87
2019-05-30T16:43:52.699Z,2.20
2019-05-30T16:46:22.693Z,2.13
2019-05-30T16:48:54.335Z,2.30
2019-05-30T16:51:23.954Z,2.40
2019-05-30T16:53:53.527Z,2.43
2019-05-30T16:56:24.114Z,2.33
2019-05-30T16:58:53.716Z,1.97
2019-05-30T17:01:24.319Z,2.43
2019-05-30T17:03:56.220Z,2.30
2019-05-30T17:06:26.465Z,2.40
2019-05-30T17:08:56.145Z,3.20
2019-05-30T17:11:25.810Z,2.57
2019-05-30T17:13:55.544Z,3.47
2019-05-30T17:16:26.161Z,2.30
2019-05-30T17:18:55.833Z,2.30
2019-05-30T17:21:26.449Z,2.87
2019-05-30T17:23:56.514Z,2.10
2019-05-30T17:26:27.325Z,2.20
2019-05-30T17:28:57.099Z,1.90
2019-05-30T17:31:28.676Z,1.80
2019-05-30T17:33:58.380Z,2.60
2019-05-30T17:36:28.449Z,2.23
2019-05-30T17:38:59.465Z,2.90
2019-05-30T17:41:29.153Z,1.93
2019-05-30T17:43:58.788Z,2.40
2019-05-30T17:46:30.049Z,2.50
2019-05-30T17:49:01.929Z,2.70
2019-05-30T17:51:31.506Z,3.07
2019-05-30T17:54:01.117Z,2.47
2019-05-30T17:56:30.866Z,2.53
2019-05-30T17:59:00.552Z,2.27
2019-05-30T18:01:32.946Z,2.20
2019-05-30T18:04:02.958Z,3.47
2019-05-30T18:06:32.716Z,1.83
2019-05-30T18:09:02.830Z,1.77
2019-05-30T18:11:34.006Z,1.80
2019-05-30T18:14:03.638Z,1.90
2019-05-30T18:16:33.267Z,2.13
2019-05-30T18:19:03.021Z,2.00
2019-05-30T18:21:32.779Z,1.93
2019-05-30T18:24:02.888Z,2.30
2019-05-30T18:26:32.528Z,1.90
2019-05-30T18:29:02.694Z,2.10
2019-05-30T18:31:32.432Z,2.00
2019-05-30T18:34:02.763Z,2.20
2019-05-30T18:36:32.766Z,2.17
2019-05-30T18:39:03.080Z,4.73
2019-05-30T18:41:33.507Z,4.43
2019-05-30T18:44:05.669Z,3.20
2019-05-30T18:46:38.420Z,3.73
2019-05-30T18:49:07.773Z,2.80
2019-05-30T18:51:38.659Z,2.80
2019-05-30T18:54:08.802Z,3.43
2019-05-30T18:56:39.328Z,2.40
2019-05-30T18:59:09.063Z,2.30
2019-05-30T19:01:39.635Z,2.20
2019-05-30T19:04:09.322Z,3.57
2019-05-30T19:06:39.133Z,2.90
2019-05-30T19:09:09.251Z,3.43
2019-05-30T19:11:39.013Z,7.23
2019-05-30T19:14:08.711Z,2.87
2019-05-30T19:16:38.310Z,2.47
2019-05-30T19:19:07.916Z,2.20
2019-05-30T19:21:37.532Z,2.37
2019-05-30T19:24:07.461Z,2.70
2019-05-30T19:26:37.049Z,2.30
2019-05-30T19:29:06.849Z,2.60
2019-05-30T19:31:36.960Z,2.80
2019-05-30T19:34:07.681Z,2.57
2019-05-30T19:36:37.368Z,2.30
2019-05-30T19:39:07.159Z,2.33
2019-05-30T19:41:53.431Z,4.23
2019-05-30T19:44:09.090Z,2.21
2019-05-30T19:46:38.970Z,2.50
2019-05-30T19:49:08.931Z,2.17
2019-05-30T19:51:39.241Z,2.27
2019-05-30T19:54:09.099Z,3.30
2019-05-30T19:56:40.832Z,2.60
2019-05-30T19:59:09.934Z,2.40
2019-05-30T20:01:40.049Z,2.60
2019-05-30T20:04:09.790Z,2.70
2019-05-30T20:06:41.221Z,3.20
2019-05-30T20:09:19.458Z,3.17
2019-05-30T20:12:02.572Z,3.50
2019-05-30T20:14:21.370Z,3.30
2019-05-30T20:16:51.143Z,5.23
2019-05-30T20:19:20.677Z,3.93
2019-05-30T20:21:50.368Z,2.80
2019-05-30T20:24:19.960Z,3.27
2019-05-30T20:26:52.480Z,3.00
2019-05-30T20:29:22.201Z,3.13
2019-05-30T20:32:12.530Z,2.60
2019-05-30T20:34:43.083Z,2.57
2019-05-30T20:37:14.078Z,2.77
2019-05-30T20:39:43.686Z,2.03
2019-05-30T20:42:19.224Z,2.87
2019-05-30T20:44:44.569Z,2.60
2019-05-30T20:47:19.167Z,3.40
2019-05-30T20:49:48.762Z,2.37
2019-05-30T20:52:18.325Z,2.50
2019-05-30T20:54:47.839Z,2.60
2019-05-30T20:57:17.370Z,2.53
2019-05-30T20:59:47.163Z,3.07
2019-05-30T21:02:17.913Z,3.13
2019-05-30T21:04:47.707Z,3.00
2019-05-30T21:07:17.514Z,2.80
2019-05-30T21:09:47.295Z,3.20
2019-05-30T21:12:17.233Z,2.80
2019-05-30T21:14:48.081Z,3.00
2019-05-30T21:17:17.696Z,2.70
2019-05-30T21:19:47.278Z,3.10
2019-05-30T21:22:17.881Z,2.63
2019-05-30T21:24:47.445Z,3.13
2019-05-30T21:27:17.095Z,3.40
2019-05-30T21:29:47.596Z,3.17
2019-05-30T21:32:19.733Z,2.60
2019-05-30T21:34:49.836Z,2.80
2019-05-30T21:37:19.662Z,2.67
2019-05-30T21:39:49.509Z,2.90
2019-05-30T21:42:19.127Z,3.00
2019-05-30T21:44:52.313Z,2.87
2019-05-30T21:47:20.093Z,3.10
2019-05-30T21:49:49.610Z,3.10
2019-05-30T21:52:19.135Z,2.83
2019-05-30T21:54:48.662Z,3.40
2019-05-30T21:57:18.288Z,3.60
2019-05-30T21:59:48.932Z,3.60
2019-05-30T22:02:19.427Z,4.10
2019-05-30T22:04:49.102Z,4.80
2019-05-30T22:07:18.615Z,4.60
2019-05-30T22:09:49.326Z,3.50
2019-05-30T22:12:19.035Z,3.33
2019-05-30T22:14:49.810Z,3.30
2019-05-30T22:17:19.584Z,3.03
2019-05-30T22:19:50.037Z,3.93
2019-05-30T22:22:19.590Z,3.50
2019-05-30T22:24:50.314Z,5.97
2019-05-30T22:27:19.986Z,3.40
2019-05-30T22:29:50.607Z,3.57
2019-05-30T22:32:20.205Z,2.83
2019-05-30T22:34:50.774Z,3.00
2019-05-30T22:37:20.424Z,3.27
2019-05-30T22:39:50.944Z,3.47
2019-05-30T22:42:20.573Z,4.00
2019-05-30T22:44:50.235Z,3.70
2019-05-30T22:47:19.870Z,3.20
2019-05-30T22:49:50.662Z,3.23
2019-05-30T22:52:20.397Z,3.40
2019-05-30T22:54:51.138Z,3.10
2019-05-30T22:57:20.759Z,4.23
2019-05-30T22:59:50.966Z,4.07
2019-05-30T23:02:21.565Z,3.87
2019-05-30T23:04:52.281Z,3.70
2019-05-30T23:07:22.784Z,3.60
2019-05-30T23:09:53.975Z,3.87
2019-05-30T23:12:23.625Z,4.00
2019-05-30T23:14:56.764Z,4.43
2019-05-30T23:17:27.847Z,3.40
2019-05-30T23:19:57.443Z,2.97
2019-05-30T23:22:26.978Z,3.07
2019-05-30T23:24:57.528Z,3.90
2019-05-30T23:27:27.070Z,3.87
2019-05-30T23:29:57.771Z,3.47
2019-05-30T23:32:27.622Z,4.20
2019-05-30T23:34:57.161Z,3.80
2019-05-30T23:37:26.792Z,3.30
2019-05-30T23:39:56.866Z,3.00
2019-05-30T23:42:26.457Z,3.67
2019-05-30T23:44:56.010Z,3.00
2019-05-30T23:47:26.627Z,3.27
2019-05-30T23:49:56.355Z,3.23
2019-05-30T23:52:26.117Z,3.43
2019-05-30T23:54:56.271Z,3.70
2019-05-30T23:57:25.925Z,3.80
2019-05-30T23:59:56.845Z,6.47
